AirNav   Pilot Hours Calculator
 
 1585 users online  

3MO6 Kitty Hawk Estates Airport
Kearney, Missouri, USA

GOING TO KEARNEY?


FAA INFORMATION EFFECTIVE 05 DECEMBER 2019

Location

FAA Identifier: 3MO6
Lat/Long: 39-20-08.0040N 094-29-00.8270W
39-20.133400N 094-29.013783W
39.3355567,-94.4835631
(estimated)
Elevation: 1000 ft. / 305 m (estimated)
Variation: 05E (1985)
From city: 6 miles SW of KEARNEY, MO
Time zone: UTC -6 (UTC -5 during Daylight Saving Time)
Zip code: 64068

Airport Operations

Airport use: Private use. Permission required prior to landing
Activation date: 01/1976
Control tower: no
ARTCC: KANSAS CITY CENTER
FSS: COLUMBIA FLIGHT SERVICE STATION
Attendance: UNATNDD
Wind indicator: yes
Segmented circle: no

Airport Communications

WX AWOS-3 at GPH (8 nm E): 120.275 (816-407-3399)
WX ASOS at MCI (11 nm W): 128.375 (816-329-2808)
WX ASOS at MKC (14 nm S): PHONE 816-329-2843

Nearby radio navigation aids

VOR radial/distance  VOR name  Freq  Var
MCIr071/12.1KANSAS CITY VORTAC113.2505E
ANXr304/21.9NAPOLEON VORTAC114.0007E
BQSr235/33.3BRAYMER VOR/DME111.2003E

 
NDB name  Hdg/Dist  Freq  Var  ID
AMAZON145/38.323304EAZN .- --.. -.

Airport Services

Airframe service: NONE
Powerplant service: NONE

Runway Information

Runway N/S

Dimensions: 2200 x 60 ft. / 671 x 18 m
Surface: turf
RUNWAY N  RUNWAY S
Traffic pattern: rightleft
Obstructions: nonepline, 500 ft. from runway

Airport Ownership and Management from official FAA records

Ownership: Privately-owned
Owner: JERRY W. SULLIVAN
9812 E. 87TH
RAYTOWN, MO 64138
Phone 816-737-1351
RUSTIC DEVELOPMENT CO
Manager: JERRY W. SULLIVAN
9812 E. 87TH
RAYTOWN, MO 64138
Phone 816-781-6896

Airport Operational Statistics

Aircraft based on the field: 4
Single engine airplanes: 4
    

Additional Remarks

FOR CD CTC KANSAS CITY APCH AT 816-329-2710.

Instrument Procedures

There are no published instrument procedures at 3MO6.

Some nearby airports with instrument procedures:

KGPH - Midwest National Air Center Airport (8 nm E)
KMCI - Kansas City International Airport (11 nm W)
3EX - Excelsior Springs Memorial Airport (13 nm E)
KMKC - Charles B Wheeler Downtown Airport (14 nm S)
KFLV - Sherman Army Airfield (20 nm W)
 
Loc | Ops | Rwys | IFR | FBO | Links
Com | Nav | Svcs | Stats | Notes

Kansas City Aviation Department
 
Area around 3MO6 (Kitty Hawk Estates Airport)
 
Road maps at: MapQuest Bing Google
 
Aerial photo
No photo
 
Sectional chart

 
Airport distance calculator
Flying to Kitty Hawk Estates Airport? Find the distance to fly.

From to 3MO6

Sunrise and sunset
Times for 05-Dec-2019
 Local
(UTC-6)
 Zulu
(UTC)
Morning civil twilight06:5412:54
Sunrise07:2413:24
Sunset16:5422:54
Evening civil twilight17:2323:23

Current date and time
Zulu (UTC)  05-Dec-2019 15:43:04
Local (UTC-6)  05-Dec-2019 09:43:04
 
METAR
KGPH 
8nm E 
051515Z AUTO 00000KT 10SM CLR 01/00 A2997 RMK AO2
KMCI 
12nm W 
051453Z 00000KT 10SM BKN250 06/02 A2995 RMK AO2 SLP141 T00610022 53006
KMKC 
14nm S 
051454Z 07003KT 10SM CLR 04/00 A2995 RMK AO2 SLP147 T00440000 52004
TAF
KMCI 
12nm W 
051120Z 0512/0612 17006KT P6SM SKC FM051900 18005KT P6SM SCT200 FM060000 VRB04KT P6SM BKN150 FM060500 01005KT P6SM BKN080 FM061000 36015G20KT P6SM SCT015 OVC030
KMKC 
14nm S 
051120Z 0512/0612 17006KT P6SM SKC FM051900 18005KT P6SM SCT200 FM060000 VRB04KT P6SM BKN150 FM060600 01005KT P6SM BKN080 FM061000 36015G20KT P6SM SCT015 OVC030
NOTAMs
Click for the latest NOTAMs
NOTAMs are issued by the DoD/FAA and will open in a separate window not controlled by AirNav.

 

 
 

Would you like to see your business listed on this page?

 If your business provides an interesting product or service to pilots, flight crews, aircraft, or users of the Kitty Hawk Estates Airport, you should consider listing it here.  To start the listing process, click on the button below
 
Add a business
 

Other Pages about Kitty Hawk Estates Airport

Update a link
 
Copyright © AirNav, LLC. All rights reserved. Privacy Policy  Contact